sensor_id;sensor_type;location;lat;lon;timestamp;P1;durP1;ratioP1;P2;durP2;ratioP2
15240;SDS011;7723;52.170;9.978;2023-06-10T00:01:51;6.90;;;3.63;;
15240;SDS011;7723;52.170;9.978;2023-06-10T00:04:26;4.57;;;2.85;;
15240;SDS011;7723;52.170;9.978;2023-06-10T00:06:53;4.55;;;3.35;;
15240;SDS011;7723;52.170;9.978;2023-06-10T00:09:22;5.25;;;3.10;;
15240;SDS011;7723;52.170;9.978;2023-06-10T00:11:49;5.35;;;3.40;;
15240;SDS011;7723;52.170;9.978;2023-06-10T00:14:16;4.07;;;3.03;;
15240;SDS011;7723;52.170;9.978;2023-06-10T00:16:43;4.35;;;3.13;;
15240;SDS011;7723;52.170;9.978;2023-06-10T00:19:11;3.92;;;2.65;;
15240;SDS011;7723;52.170;9.978;2023-06-10T00:21:42;3.50;;;2.92;;
15240;SDS011;7723;52.170;9.978;2023-06-10T00:24:10;5.32;;;3.05;;
15240;SDS011;7723;52.170;9.978;2023-06-10T00:26:38;2.97;;;2.65;;
15240;SDS011;7723;52.170;9.978;2023-06-10T00:29:05;4.95;;;3.00;;
15240;SDS011;7723;52.170;9.978;2023-06-10T00:31:33;5.97;;;3.28;;
15240;SDS011;7723;52.170;9.978;2023-06-10T00:34:01;7.40;;;3.78;;
15240;SDS011;7723;52.170;9.978;2023-06-10T00:36:28;7.15;;;3.17;;
15240;SDS011;7723;52.170;9.978;2023-06-10T00:38:57;3.22;;;2.92;;
15240;SDS011;7723;52.170;9.978;2023-06-10T00:41:25;5.57;;;3.45;;
15240;SDS011;7723;52.170;9.978;2023-06-10T00:43:52;5.90;;;3.50;;
15240;SDS011;7723;52.170;9.978;2023-06-10T00:46:19;6.50;;;3.15;;
15240;SDS011;7723;52.170;9.978;2023-06-10T00:48:48;6.90;;;3.40;;
15240;SDS011;7723;52.170;9.978;2023-06-10T00:51:15;5.13;;;3.10;;
15240;SDS011;7723;52.170;9.978;2023-06-10T00:53:45;5.05;;;3.30;;
15240;SDS011;7723;52.170;9.978;2023-06-10T00:56:14;5.68;;;3.42;;
15240;SDS011;7723;52.170;9.978;2023-06-10T00:58:41;3.97;;;3.15;;
15240;SDS011;7723;52.170;9.978;2023-06-10T01:01:09;4.50;;;3.40;;
15240;SDS011;7723;52.170;9.978;2023-06-10T01:03:37;4.90;;;3.60;;
15240;SDS011;7723;52.170;9.978;2023-06-10T01:06:06;6.32;;;3.42;;
15240;SDS011;7723;52.170;9.978;2023-06-10T01:08:45;7.03;;;2.92;;
15240;SDS011;7723;52.170;9.978;2023-06-10T01:11:19;4.00;;;3.13;;
15240;SDS011;7723;52.170;9.978;2023-06-10T01:13:51;4.97;;;3.50;;
15240;SDS011;7723;52.170;9.978;2023-06-10T01:16:22;5.93;;;3.30;;
15240;SDS011;7723;52.170;9.978;2023-06-10T01:18:50;3.97;;;3.42;;
15240;SDS011;7723;52.170;9.978;2023-06-10T01:21:21;4.25;;;3.10;;
15240;SDS011;7723;52.170;9.978;2023-06-10T01:23:50;5.53;;;2.92;;
15240;SDS011;7723;52.170;9.978;2023-06-10T01:26:18;4.20;;;3.28;;
15240;SDS011;7723;52.170;9.978;2023-06-10T01:28:53;6.40;;;3.63;;
15240;SDS011;7723;52.170;9.978;2023-06-10T01:31:29;4.57;;;3.30;;
15240;SDS011;7723;52.170;9.978;2023-06-10T01:34:01;5.50;;;3.17;;
15240;SDS011;7723;52.170;9.978;2023-06-10T01:36:34;5.55;;;3.53;;
15240;SDS011;7723;52.170;9.978;2023-06-10T01:39:03;5.43;;;3.83;;
15240;SDS011;7723;52.170;9.978;2023-06-10T01:41:31;4.88;;;3.40;;
15240;SDS011;7723;52.170;9.978;2023-06-10T01:43:59;4.32;;;3.05;;
15240;SDS011;7723;52.170;9.978;2023-06-10T01:46:26;6.25;;;3.05;;
15240;SDS011;7723;52.170;9.978;2023-06-10T01:48:53;7.70;;;3.20;;
15240;SDS011;7723;52.170;9.978;2023-06-10T01:51:20;6.18;;;4.13;;
15240;SDS011;7723;52.170;9.978;2023-06-10T01:53:48;4.82;;;3.95;;
15240;SDS011;7723;52.170;9.978;2023-06-10T01:56:15;5.30;;;3.60;;
15240;SDS011;7723;52.170;9.978;2023-06-10T01:58:44;6.50;;;3.22;;
15240;SDS011;7723;52.170;9.978;2023-06-10T02:01:11;5.03;;;3.67;;
15240;SDS011;7723;52.170;9.978;2023-06-10T02:03:39;8.18;;;3.92;;
15240;SDS011;7723;52.170;9.978;2023-06-10T02:06:06;5.95;;;3.95;;
15240;SDS011;7723;52.170;9.978;2023-06-10T02:08:33;6.43;;;4.05;;
15240;SDS011;7723;52.170;9.978;2023-06-10T02:11:02;6.55;;;4.20;;
15240;SDS011;7723;52.170;9.978;2023-06-10T02:13:29;6.63;;;3.90;;
15240;SDS011;7723;52.170;9.978;2023-06-10T02:15:56;5.95;;;3.70;;
15240;SDS011;7723;52.170;9.978;2023-06-10T02:18:23;5.60;;;4.00;;
15240;SDS011;7723;52.170;9.978;2023-06-10T02:20:52;6.30;;;4.40;;
15240;SDS011;7723;52.170;9.978;2023-06-10T02:23:19;6.88;;;4.28;;
15240;SDS011;7723;52.170;9.978;2023-06-10T02:25:46;9.90;;;4.40;;
15240;SDS011;7723;52.170;9.978;2023-06-10T02:28:15;7.75;;;3.95;;
15240;SDS011;7723;52.170;9.978;2023-06-10T02:30:42;7.78;;;4.07;;
15240;SDS011;7723;52.170;9.978;2023-06-10T02:33:10;9.27;;;5.60;;
15240;SDS011;7723;52.170;9.978;2023-06-10T02:35:37;11.07;;;5.50;;
15240;SDS011;7723;52.170;9.978;2023-06-10T02:38:05;5.63;;;4.35;;
15240;SDS011;7723;52.170;9.978;2023-06-10T02:40:32;6.50;;;4.75;;
15240;SDS011;7723;52.170;9.978;2023-06-10T02:42:59;5.18;;;4.55;;
15240;SDS011;7723;52.170;9.978;2023-06-10T02:45:28;9.40;;;5.07;;
15240;SDS011;7723;52.170;9.978;2023-06-10T02:47:55;7.75;;;4.75;;
15240;SDS011;7723;52.170;9.978;2023-06-10T02:50:22;8.02;;;5.13;;
15240;SDS011;7723;52.170;9.978;2023-06-10T02:52:49;8.88;;;5.75;;
15240;SDS011;7723;52.170;9.978;2023-06-10T02:55:16;7.95;;;4.85;;
15240;SDS011;7723;52.170;9.978;2023-06-10T02:57:44;6.25;;;4.80;;
15240;SDS011;7723;52.170;9.978;2023-06-10T03:00:11;8.30;;;5.20;;
15240;SDS011;7723;52.170;9.978;2023-06-10T03:02:40;9.05;;;5.32;;
15240;SDS011;7723;52.170;9.978;2023-06-10T03:05:08;8.23;;;5.18;;
15240;SDS011;7723;52.170;9.978;2023-06-10T03:07:36;9.25;;;6.07;;
15240;SDS011;7723;52.170;9.978;2023-06-10T03:10:03;9.18;;;5.40;;
15240;SDS011;7723;52.170;9.978;2023-06-10T03:12:31;7.60;;;6.00;;
15240;SDS011;7723;52.170;9.978;2023-06-10T03:14:59;11.65;;;5.88;;
15240;SDS011;7723;52.170;9.978;2023-06-10T03:17:26;9.02;;;5.65;;
15240;SDS011;7723;52.170;9.978;2023-06-10T03:19:54;10.15;;;5.43;;
15240;SDS011;7723;52.170;9.978;2023-06-10T03:22:21;7.78;;;5.85;;
15240;SDS011;7723;52.170;9.978;2023-06-10T03:24:48;6.00;;;5.40;;
15240;SDS011;7723;52.170;9.978;2023-06-10T03:27:16;8.00;;;5.75;;
15240;SDS011;7723;52.170;9.978;2023-06-10T03:29:43;6.35;;;5.05;;
15240;SDS011;7723;52.170;9.978;2023-06-10T03:32:10;8.45;;;5.30;;
15240;SDS011;7723;52.170;9.978;2023-06-10T03:34:37;8.13;;;5.00;;
15240;SDS011;7723;52.170;9.978;2023-06-10T03:37:06;9.65;;;6.30;;
15240;SDS011;7723;52.170;9.978;2023-06-10T03:39:33;8.38;;;5.13;;
15240;SDS011;7723;52.170;9.978;2023-06-10T03:42:00;9.13;;;5.57;;
15240;SDS011;7723;52.170;9.978;2023-06-10T03:44:27;9.77;;;5.55;;
15240;SDS011;7723;52.170;9.978;2023-06-10T03:46:54;7.25;;;5.40;;
15240;SDS011;7723;52.170;9.978;2023-06-10T03:49:22;9.23;;;5.88;;
15240;SDS011;7723;52.170;9.978;2023-06-10T03:51:50;12.73;;;6.53;;
15240;SDS011;7723;52.170;9.978;2023-06-10T03:54:19;8.68;;;5.78;;
15240;SDS011;7723;52.170;9.978;2023-06-10T03:56:46;9.27;;;5.75;;
15240;SDS011;7723;52.170;9.978;2023-06-10T03:59:13;7.97;;;5.13;;
15240;SDS011;7723;52.170;9.978;2023-06-10T04:01:42;8.57;;;5.35;;
15240;SDS011;7723;52.170;9.978;2023-06-10T04:04:11;7.53;;;5.30;;
15240;SDS011;7723;52.170;9.978;2023-06-10T04:06:40;6.07;;;4.43;;
15240;SDS011;7723;52.170;9.978;2023-06-10T04:09:08;7.63;;;4.40;;
15240;SDS011;7723;52.170;9.978;2023-06-10T04:11:37;8.15;;;4.70;;
15240;SDS011;7723;52.170;9.978;2023-06-10T04:14:04;10.15;;;4.78;;
15240;SDS011;7723;52.170;9.978;2023-06-10T04:16:32;6.45;;;3.83;;
15240;SDS011;7723;52.170;9.978;2023-06-10T04:19:00;4.65;;;3.80;;
15240;SDS011;7723;52.170;9.978;2023-06-10T04:21:27;6.30;;;4.18;;
15240;SDS011;7723;52.170;9.978;2023-06-10T04:23:55;8.68;;;3.78;;
15240;SDS011;7723;52.170;9.978;2023-06-10T04:26:22;11.10;;;4.28;;
15240;SDS011;7723;52.170;9.978;2023-06-10T04:28:50;6.55;;;3.92;;
15240;SDS011;7723;52.170;9.978;2023-06-10T04:31:18;8.43;;;3.92;;
15240;SDS011;7723;52.170;9.978;2023-06-10T04:33:45;6.68;;;3.38;;
15240;SDS011;7723;52.170;9.978;2023-06-10T04:36:12;6.68;;;4.13;;
15240;SDS011;7723;52.170;9.978;2023-06-10T04:38:40;4.20;;;3.72;;
15240;SDS011;7723;52.170;9.978;2023-06-10T04:41:07;5.60;;;4.32;;
15240;SDS011;7723;52.170;9.978;2023-06-10T04:43:34;6.03;;;4.72;;
15240;SDS011;7723;52.170;9.978;2023-06-10T04:46:03;6.95;;;4.07;;
15240;SDS011;7723;52.170;9.978;2023-06-10T04:48:30;6.15;;;3.67;;
15240;SDS011;7723;52.170;9.978;2023-06-10T04:51:00;5.35;;;4.00;;
15240;SDS011;7723;52.170;9.978;2023-06-10T04:53:27;7.80;;;4.30;;
15240;SDS011;7723;52.170;9.978;2023-06-10T04:55:54;5.72;;;3.78;;
15240;SDS011;7723;52.170;9.978;2023-06-10T04:58:22;8.63;;;4.60;;
15240;SDS011;7723;52.170;9.978;2023-06-10T05:00:49;11.20;;;4.40;;
15240;SDS011;7723;52.170;9.978;2023-06-10T05:03:18;7.47;;;4.43;;
15240;SDS011;7723;52.170;9.978;2023-06-10T05:05:45;8.18;;;3.97;;
15240;SDS011;7723;52.170;9.978;2023-06-10T05:08:12;10.38;;;5.00;;
15240;SDS011;7723;52.170;9.978;2023-06-10T05:10:40;7.97;;;4.75;;
15240;SDS011;7723;52.170;9.978;2023-06-10T05:13:07;7.88;;;4.20;;
15240;SDS011;7723;52.170;9.978;2023-06-10T05:15:34;6.45;;;4.40;;
15240;SDS011;7723;52.170;9.978;2023-06-10T05:18:02;7.65;;;4.72;;
15240;SDS011;7723;52.170;9.978;2023-06-10T05:20:30;7.97;;;4.90;;
15240;SDS011;7723;52.170;9.978;2023-06-10T05:22:57;8.00;;;4.72;;
15240;SDS011;7723;52.170;9.978;2023-06-10T05:25:25;8.50;;;5.18;;
15240;SDS011;7723;52.170;9.978;2023-06-10T05:27:53;6.78;;;4.95;;
15240;SDS011;7723;52.170;9.978;2023-06-10T05:30:20;7.05;;;5.07;;
15240;SDS011;7723;52.170;9.978;2023-06-10T05:32:47;9.35;;;5.50;;
15240;SDS011;7723;52.170;9.978;2023-06-10T05:35:16;8.35;;;5.40;;
15240;SDS011;7723;52.170;9.978;2023-06-10T05:37:44;8.38;;;5.10;;
15240;SDS011;7723;52.170;9.978;2023-06-10T05:40:12;13.68;;;6.10;;
15240;SDS011;7723;52.170;9.978;2023-06-10T05:42:39;12.30;;;5.50;;
15240;SDS011;7723;52.170;9.978;2023-06-10T05:45:07;9.88;;;5.93;;
15240;SDS011;7723;52.170;9.978;2023-06-10T05:47:34;8.27;;;5.88;;
15240;SDS011;7723;52.170;9.978;2023-06-10T05:50:02;8.68;;;5.18;;
15240;SDS011;7723;52.170;9.978;2023-06-10T05:52:32;10.20;;;6.47;;
15240;SDS011;7723;52.170;9.978;2023-06-10T05:55:00;11.93;;;6.93;;
15240;SDS011;7723;52.170;9.978;2023-06-10T05:57:27;10.25;;;7.93;;
15240;SDS011;7723;52.170;9.978;2023-06-10T05:59:54;8.73;;;6.78;;
15240;SDS011;7723;52.170;9.978;2023-06-10T06:02:21;9.57;;;6.93;;
15240;SDS011;7723;52.170;9.978;2023-06-10T06:04:49;12.57;;;7.80;;
15240;SDS011;7723;52.170;9.978;2023-06-10T06:07:16;11.20;;;8.05;;
15240;SDS011;7723;52.170;9.978;2023-06-10T06:09:45;12.65;;;7.43;;
15240;SDS011;7723;52.170;9.978;2023-06-10T06:12:14;13.75;;;7.82;;
15240;SDS011;7723;52.170;9.978;2023-06-10T06:14:41;11.52;;;6.85;;
15240;SDS011;7723;52.170;9.978;2023-06-10T06:17:10;10.63;;;6.93;;
15240;SDS011;7723;52.170;9.978;2023-06-10T06:19:37;12.50;;;7.03;;
15240;SDS011;7723;52.170;9.978;2023-06-10T06:22:04;8.82;;;6.75;;
15240;SDS011;7723;52.170;9.978;2023-06-10T06:24:32;10.55;;;6.53;;
15240;SDS011;7723;52.170;9.978;2023-06-10T06:26:59;10.80;;;7.15;;
15240;SDS011;7723;52.170;9.978;2023-06-10T06:29:27;10.60;;;7.22;;
15240;SDS011;7723;52.170;9.978;2023-06-10T06:31:56;10.45;;;7.63;;
15240;SDS011;7723;52.170;9.978;2023-06-10T06:34:23;11.32;;;6.75;;
15240;SDS011;7723;52.170;9.978;2023-06-10T06:36:50;12.57;;;7.55;;
15240;SDS011;7723;52.170;9.978;2023-06-10T06:39:18;9.60;;;7.75;;
15240;SDS011;7723;52.170;9.978;2023-06-10T06:41:45;8.43;;;7.00;;
15240;SDS011;7723;52.170;9.978;2023-06-10T06:44:12;10.57;;;7.15;;
15240;SDS011;7723;52.170;9.978;2023-06-10T06:46:41;9.77;;;6.40;;
15240;SDS011;7723;52.170;9.978;2023-06-10T06:49:08;11.43;;;7.97;;
15240;SDS011;7723;52.170;9.978;2023-06-10T06:51:35;9.95;;;7.35;;
15240;SDS011;7723;52.170;9.978;2023-06-10T06:54:02;16.67;;;7.82;;
15240;SDS011;7723;52.170;9.978;2023-06-10T06:56:30;8.80;;;7.03;;
15240;SDS011;7723;52.170;9.978;2023-06-10T06:58:57;9.10;;;6.63;;
15240;SDS011;7723;52.170;9.978;2023-06-10T07:01:25;9.13;;;6.80;;
15240;SDS011;7723;52.170;9.978;2023-06-10T07:03:54;8.05;;;6.63;;
15240;SDS011;7723;52.170;9.978;2023-06-10T07:06:21;12.10;;;7.68;;
15240;SDS011;7723;52.170;9.978;2023-06-10T07:08:49;7.85;;;7.03;;
15240;SDS011;7723;52.170;9.978;2023-06-10T07:11:16;9.05;;;7.28;;
15240;SDS011;7723;52.170;9.978;2023-06-10T07:13:44;7.40;;;5.78;;
15240;SDS011;7723;52.170;9.978;2023-06-10T07:16:11;6.72;;;5.82;;
15240;SDS011;7723;52.170;9.978;2023-06-10T07:18:38;8.38;;;5.57;;
15240;SDS011;7723;52.170;9.978;2023-06-10T07:21:06;10.85;;;5.10;;
15240;SDS011;7723;52.170;9.978;2023-06-10T07:23:34;7.07;;;5.20;;
15240;SDS011;7723;52.170;9.978;2023-06-10T07:26:01;5.88;;;5.05;;
15240;SDS011;7723;52.170;9.978;2023-06-10T07:28:28;7.45;;;5.03;;
15240;SDS011;7723;52.170;9.978;2023-06-10T07:30:55;7.30;;;5.30;;
15240;SDS011;7723;52.170;9.978;2023-06-10T07:33:22;9.55;;;5.82;;
15240;SDS011;7723;52.170;9.978;2023-06-10T07:35:50;8.23;;;5.20;;
15240;SDS011;7723;52.170;9.978;2023-06-10T07:38:19;6.95;;;4.28;;
15240;SDS011;7723;52.170;9.978;2023-06-10T07:40:46;8.15;;;5.53;;
15240;SDS011;7723;52.170;9.978;2023-06-10T07:43:13;8.00;;;5.20;;
15240;SDS011;7723;52.170;9.978;2023-06-10T07:45:40;8.02;;;5.68;;
15240;SDS011;7723;52.170;9.978;2023-06-10T07:48:07;8.57;;;5.72;;
15240;SDS011;7723;52.170;9.978;2023-06-10T07:50:35;6.45;;;5.65;;
15240;SDS011;7723;52.170;9.978;2023-06-10T07:53:03;7.32;;;5.38;;
15240;SDS011;7723;52.170;9.978;2023-06-10T07:55:31;8.90;;;5.45;;
15240;SDS011;7723;52.170;9.978;2023-06-10T07:57:59;7.20;;;5.47;;
15240;SDS011;7723;52.170;9.978;2023-06-10T08:00:26;8.65;;;4.90;;
15240;SDS011;7723;52.170;9.978;2023-06-10T08:02:53;9.10;;;5.93;;
15240;SDS011;7723;52.170;9.978;2023-06-10T08:05:20;8.93;;;5.45;;
15240;SDS011;7723;52.170;9.978;2023-06-10T08:07:48;8.07;;;5.13;;
15240;SDS011;7723;52.170;9.978;2023-06-10T08:10:15;7.50;;;5.45;;
15240;SDS011;7723;52.170;9.978;2023-06-10T08:12:43;8.55;;;5.75;;
15240;SDS011;7723;52.170;9.978;2023-06-10T08:15:10;6.57;;;5.13;;
15240;SDS011;7723;52.170;9.978;2023-06-10T08:17:37;10.13;;;6.10;;
15240;SDS011;7723;52.170;9.978;2023-06-10T08:20:05;6.60;;;4.60;;
15240;SDS011;7723;52.170;9.978;2023-06-10T08:22:33;5.93;;;5.03;;
15240;SDS011;7723;52.170;9.978;2023-06-10T08:25:00;8.00;;;5.30;;
15240;SDS011;7723;52.170;9.978;2023-06-10T08:27:27;6.60;;;5.13;;
15240;SDS011;7723;52.170;9.978;2023-06-10T08:29:56;7.85;;;5.43;;
15240;SDS011;7723;52.170;9.978;2023-06-10T08:32:25;7.72;;;4.90;;
15240;SDS011;7723;52.170;9.978;2023-06-10T08:34:52;7.47;;;5.10;;
15240;SDS011;7723;52.170;9.978;2023-06-10T08:37:19;9.27;;;5.53;;
15240;SDS011;7723;52.170;9.978;2023-06-10T08:39:47;7.00;;;5.15;;
15240;SDS011;7723;52.170;9.978;2023-06-10T08:42:15;9.55;;;5.50;;
15240;SDS011;7723;52.170;9.978;2023-06-10T08:44:48;6.97;;;5.35;;
15240;SDS011;7723;52.170;9.978;2023-06-10T08:47:20;6.55;;;5.20;;
15240;SDS011;7723;52.170;9.978;2023-06-10T08:49:50;7.35;;;5.70;;
15240;SDS011;7723;52.170;9.978;2023-06-10T08:52:18;7.47;;;5.38;;
15240;SDS011;7723;52.170;9.978;2023-06-10T08:54:48;5.88;;;4.97;;
15240;SDS011;7723;52.170;9.978;2023-06-10T08:57:18;9.88;;;5.15;;
15240;SDS011;7723;52.170;9.978;2023-06-10T08:59:47;10.07;;;5.15;;
15240;SDS011;7723;52.170;9.978;2023-06-10T09:02:15;6.30;;;5.55;;
15240;SDS011;7723;52.170;9.978;2023-06-10T09:04:46;8.20;;;5.15;;
15240;SDS011;7723;52.170;9.978;2023-06-10T09:07:15;5.93;;;4.90;;
15240;SDS011;7723;52.170;9.978;2023-06-10T09:09:44;6.50;;;5.30;;
15240;SDS011;7723;52.170;9.978;2023-06-10T09:12:13;10.52;;;5.15;;
15240;SDS011;7723;52.170;9.978;2023-06-10T09:14:40;7.70;;;4.95;;
15240;SDS011;7723;52.170;9.978;2023-06-10T09:17:08;8.25;;;4.90;;
15240;SDS011;7723;52.170;9.978;2023-06-10T09:19:36;5.82;;;4.65;;
15240;SDS011;7723;52.170;9.978;2023-06-10T09:22:06;7.25;;;5.40;;
15240;SDS011;7723;52.170;9.978;2023-06-10T09:24:33;6.90;;;5.15;;
15240;SDS011;7723;52.170;9.978;2023-06-10T09:27:02;7.15;;;5.43;;
15240;SDS011;7723;52.170;9.978;2023-06-10T09:29:30;7.47;;;5.45;;
15240;SDS011;7723;52.170;9.978;2023-06-10T09:31:57;5.90;;;5.28;;
15240;SDS011;7723;52.170;9.978;2023-06-10T09:34:25;6.78;;;5.38;;
15240;SDS011;7723;52.170;9.978;2023-06-10T09:36:52;7.43;;;5.53;;
15240;SDS011;7723;52.170;9.978;2023-06-10T09:39:22;6.80;;;5.50;;
15240;SDS011;7723;52.170;9.978;2023-06-10T09:41:49;7.45;;;5.15;;
15240;SDS011;7723;52.170;9.978;2023-06-10T09:44:17;7.60;;;5.30;;
15240;SDS011;7723;52.170;9.978;2023-06-10T09:46:45;6.57;;;5.30;;
15240;SDS011;7723;52.170;9.978;2023-06-10T09:49:14;6.82;;;4.88;;
15240;SDS011;7723;52.170;9.978;2023-06-10T09:51:49;8.10;;;5.60;;
15240;SDS011;7723;52.170;9.978;2023-06-10T09:54:18;7.28;;;5.63;;
15240;SDS011;7723;52.170;9.978;2023-06-10T09:56:47;6.88;;;5.43;;
15240;SDS011;7723;52.170;9.978;2023-06-10T09:59:15;6.95;;;5.20;;
15240;SDS011;7723;52.170;9.978;2023-06-10T10:01:42;10.18;;;5.82;;
15240;SDS011;7723;52.170;9.978;2023-06-10T10:04:10;11.68;;;5.90;;
15240;SDS011;7723;52.170;9.978;2023-06-10T10:06:37;7.22;;;5.72;;
15240;SDS011;7723;52.170;9.978;2023-06-10T10:09:05;13.90;;;6.25;;
15240;SDS011;7723;52.170;9.978;2023-06-10T10:11:33;8.32;;;5.60;;
15240;SDS011;7723;52.170;9.978;2023-06-10T10:14:03;7.85;;;5.43;;
15240;SDS011;7723;52.170;9.978;2023-06-10T10:16:33;6.80;;;5.63;;
15240;SDS011;7723;52.170;9.978;2023-06-10T10:19:07;7.57;;;5.35;;
15240;SDS011;7723;52.170;9.978;2023-06-10T10:21:39;7.38;;;5.78;;
15240;SDS011;7723;52.170;9.978;2023-06-10T10:24:12;8.52;;;5.85;;
15240;SDS011;7723;52.170;9.978;2023-06-10T10:26:43;12.23;;;5.43;;
15240;SDS011;7723;52.170;9.978;2023-06-10T10:29:14;7.60;;;5.90;;
15240;SDS011;7723;52.170;9.978;2023-06-10T10:31:46;7.78;;;5.25;;
15240;SDS011;7723;52.170;9.978;2023-06-10T10:34:17;6.53;;;5.68;;
15240;SDS011;7723;52.170;9.978;2023-06-10T10:36:51;6.60;;;5.95;;
15240;SDS011;7723;52.170;9.978;2023-06-10T10:39:18;8.68;;;5.80;;
15240;SDS011;7723;52.170;9.978;2023-06-10T10:41:46;11.45;;;5.97;;
15240;SDS011;7723;52.170;9.978;2023-06-10T10:44:16;10.68;;;6.03;;
15240;SDS011;7723;52.170;9.978;2023-06-10T10:46:44;8.48;;;5.80;;
15240;SDS011;7723;52.170;9.978;2023-06-10T10:49:15;7.53;;;5.72;;
15240;SDS011;7723;52.170;9.978;2023-06-10T10:51:56;7.70;;;6.10;;
15240;SDS011;7723;52.170;9.978;2023-06-10T10:54:28;12.20;;;5.93;;
15240;SDS011;7723;52.170;9.978;2023-06-10T10:57:16;8.05;;;6.20;;
15240;SDS011;7723;52.170;9.978;2023-06-10T10:59:46;8.88;;;5.80;;
15240;SDS011;7723;52.170;9.978;2023-06-10T11:02:31;8.80;;;6.22;;
15240;SDS011;7723;52.170;9.978;2023-06-10T11:05:00;8.73;;;6.15;;
15240;SDS011;7723;52.170;9.978;2023-06-10T11:07:29;8.63;;;6.20;;
15240;SDS011;7723;52.170;9.978;2023-06-10T11:09:57;8.57;;;6.15;;
15240;SDS011;7723;52.170;9.978;2023-06-10T11:12:26;8.07;;;6.00;;
15240;SDS011;7723;52.170;9.978;2023-06-10T11:15:07;11.90;;;5.93;;
15240;SDS011;7723;52.170;9.978;2023-06-10T11:17:34;6.80;;;5.95;;
15240;SDS011;7723;52.170;9.978;2023-06-10T11:20:02;6.65;;;5.93;;
15240;SDS011;7723;52.170;9.978;2023-06-10T11:22:30;7.50;;;6.32;;
15240;SDS011;7723;52.170;9.978;2023-06-10T11:24:57;8.48;;;6.15;;
15240;SDS011;7723;52.170;9.978;2023-06-10T11:27:24;9.20;;;5.68;;
15240;SDS011;7723;52.170;9.978;2023-06-10T11:29:55;9.57;;;5.93;;
15240;SDS011;7723;52.170;9.978;2023-06-10T11:32:45;8.02;;;5.53;;
15240;SDS011;7723;52.170;9.978;2023-06-10T11:35:18;7.35;;;5.63;;
15240;SDS011;7723;52.170;9.978;2023-06-10T11:37:46;9.00;;;6.50;;
15240;SDS011;7723;52.170;9.978;2023-06-10T11:40:14;6.68;;;5.97;;
15240;SDS011;7723;52.170;9.978;2023-06-10T11:42:42;9.50;;;5.88;;
15240;SDS011;7723;52.170;9.978;2023-06-10T11:45:09;7.90;;;6.15;;
15240;SDS011;7723;52.170;9.978;2023-06-10T11:47:42;7.30;;;6.07;;
15240;SDS011;7723;52.170;9.978;2023-06-10T11:50:30;7.18;;;6.47;;
15240;SDS011;7723;52.170;9.978;2023-06-10T11:52:57;11.68;;;6.15;;
15240;SDS011;7723;52.170;9.978;2023-06-10T11:55:25;9.68;;;6.55;;
15240;SDS011;7723;52.170;9.978;2023-06-10T11:58:04;7.72;;;6.88;;
15240;SDS011;7723;52.170;9.978;2023-06-10T12:00:31;8.70;;;6.68;;
15240;SDS011;7723;52.170;9.978;2023-06-10T12:02:59;7.03;;;6.32;;
15240;SDS011;7723;52.170;9.978;2023-06-10T12:05:26;8.77;;;6.70;;
15240;SDS011;7723;52.170;9.978;2023-06-10T12:08:07;10.55;;;6.70;;
15240;SDS011;7723;52.170;9.978;2023-06-10T12:10:38;8.48;;;6.22;;
15240;SDS011;7723;52.170;9.978;2023-06-10T12:13:07;9.70;;;6.88;;
15240;SDS011;7723;52.170;9.978;2023-06-10T12:15:35;7.97;;;7.20;;
15240;SDS011;7723;52.170;9.978;2023-06-10T12:18:04;7.93;;;6.88;;
15240;SDS011;7723;52.170;9.978;2023-06-10T12:20:32;10.13;;;7.10;;
15240;SDS011;7723;52.170;9.978;2023-06-10T12:22:59;10.38;;;7.07;;
15240;SDS011;7723;52.170;9.978;2023-06-10T12:25:27;8.00;;;7.13;;
15240;SDS011;7723;52.170;9.978;2023-06-10T12:27:55;7.97;;;6.88;;
15240;SDS011;7723;52.170;9.978;2023-06-10T12:30:24;9.52;;;7.10;;
15240;SDS011;7723;52.170;9.978;2023-06-10T12:32:52;10.07;;;8.32;;
15240;SDS011;7723;52.170;9.978;2023-06-10T12:35:22;9.73;;;7.35;;
15240;SDS011;7723;52.170;9.978;2023-06-10T12:37:57;11.77;;;6.97;;
15240;SDS011;7723;52.170;9.978;2023-06-10T12:40:26;9.93;;;8.65;;
15240;SDS011;7723;52.170;9.978;2023-06-10T12:42:54;8.60;;;7.80;;
15240;SDS011;7723;52.170;9.978;2023-06-10T12:45:28;9.52;;;7.78;;
15240;SDS011;7723;52.170;9.978;2023-06-10T12:48:06;8.05;;;6.80;;
15240;SDS011;7723;52.170;9.978;2023-06-10T12:50:36;6.93;;;6.32;;
15240;SDS011;7723;52.170;9.978;2023-06-10T12:53:04;10.48;;;7.40;;
15240;SDS011;7723;52.170;9.978;2023-06-10T12:55:31;7.50;;;6.72;;
15240;SDS011;7723;52.170;9.978;2023-06-10T12:57:59;9.38;;;7.38;;
15240;SDS011;7723;52.170;9.978;2023-06-10T13:00:26;7.72;;;6.90;;
15240;SDS011;7723;52.170;9.978;2023-06-10T13:02:55;10.70;;;7.75;;
15240;SDS011;7723;52.170;9.978;2023-06-10T13:05:23;7.45;;;6.75;;
15240;SDS011;7723;52.170;9.978;2023-06-10T13:07:51;9.40;;;6.80;;
15240;SDS011;7723;52.170;9.978;2023-06-10T13:10:19;7.65;;;6.93;;
15240;SDS011;7723;52.170;9.978;2023-06-10T13:12:47;8.30;;;7.38;;
15240;SDS011;7723;52.170;9.978;2023-06-10T13:15:14;7.95;;;6.78;;
15240;SDS011;7723;52.170;9.978;2023-06-10T13:17:42;8.20;;;6.82;;
15240;SDS011;7723;52.170;9.978;2023-06-10T13:20:10;10.55;;;7.45;;
15240;SDS011;7723;52.170;9.978;2023-06-10T13:22:37;11.25;;;6.90;;
15240;SDS011;7723;52.170;9.978;2023-06-10T13:25:06;8.35;;;6.72;;
15240;SDS011;7723;52.170;9.978;2023-06-10T13:27:34;7.80;;;7.00;;
15240;SDS011;7723;52.170;9.978;2023-06-10T13:30:04;7.68;;;6.85;;
15240;SDS011;7723;52.170;9.978;2023-06-10T13:32:32;7.97;;;7.25;;
15240;SDS011;7723;52.170;9.978;2023-06-10T13:34:59;7.70;;;6.90;;
15240;SDS011;7723;52.170;9.978;2023-06-10T13:37:27;13.95;;;7.03;;
15240;SDS011;7723;52.170;9.978;2023-06-10T13:39:54;8.27;;;7.28;;
15240;SDS011;7723;52.170;9.978;2023-06-10T13:42:22;8.57;;;6.90;;
15240;SDS011;7723;52.170;9.978;2023-06-10T13:44:51;9.70;;;7.30;;
15240;SDS011;7723;52.170;9.978;2023-06-10T13:47:18;6.80;;;6.20;;
15240;SDS011;7723;52.170;9.978;2023-06-10T13:49:46;8.55;;;6.93;;
15240;SDS011;7723;52.170;9.978;2023-06-10T13:52:13;9.05;;;7.18;;
15240;SDS011;7723;52.170;9.978;2023-06-10T13:54:40;8.15;;;6.95;;
15240;SDS011;7723;52.170;9.978;2023-06-10T13:57:07;8.85;;;7.40;;
15240;SDS011;7723;52.170;9.978;2023-06-10T13:59:36;7.35;;;6.65;;
15240;SDS011;7723;52.170;9.978;2023-06-10T14:02:03;7.90;;;6.80;;
15240;SDS011;7723;52.170;9.978;2023-06-10T14:04:31;7.43;;;6.72;;
15240;SDS011;7723;52.170;9.978;2023-06-10T14:06:59;7.93;;;7.13;;
15240;SDS011;7723;52.170;9.978;2023-06-10T14:09:26;9.65;;;7.85;;
15240;SDS011;7723;52.170;9.978;2023-06-10T14:11:53;7.72;;;6.97;;
15240;SDS011;7723;52.170;9.978;2023-06-10T14:14:21;8.57;;;7.32;;
15240;SDS011;7723;52.170;9.978;2023-06-10T14:16:50;7.85;;;6.55;;
15240;SDS011;7723;52.170;9.978;2023-06-10T14:19:17;10.95;;;7.03;;
15240;SDS011;7723;52.170;9.978;2023-06-10T14:21:47;10.23;;;7.32;;
15240;SDS011;7723;52.170;9.978;2023-06-10T14:24:14;8.65;;;6.65;;
15240;SDS011;7723;52.170;9.978;2023-06-10T14:26:41;8.20;;;7.38;;
15240;SDS011;7723;52.170;9.978;2023-06-10T14:29:08;8.35;;;6.65;;
15240;SDS011;7723;52.170;9.978;2023-06-10T14:31:39;9.00;;;6.45;;
15240;SDS011;7723;52.170;9.978;2023-06-10T14:34:07;7.72;;;6.38;;
15240;SDS011;7723;52.170;9.978;2023-06-10T14:36:34;9.07;;;6.35;;
15240;SDS011;7723;52.170;9.978;2023-06-10T14:39:02;7.22;;;6.55;;
15240;SDS011;7723;52.170;9.978;2023-06-10T14:41:29;7.72;;;6.97;;
15240;SDS011;7723;52.170;9.978;2023-06-10T14:43:56;13.40;;;10.77;;
15240;SDS011;7723;52.170;9.978;2023-06-10T14:46:23;8.57;;;7.68;;
15240;SDS011;7723;52.170;9.978;2023-06-10T14:48:50;9.68;;;8.23;;
15240;SDS011;7723;52.170;9.978;2023-06-10T14:51:19;8.63;;;6.45;;
15240;SDS011;7723;52.170;9.978;2023-06-10T14:53:46;7.35;;;6.65;;
15240;SDS011;7723;52.170;9.978;2023-06-10T14:56:13;22.30;;;16.73;;
15240;SDS011;7723;52.170;9.978;2023-06-10T14:58:40;10.20;;;7.90;;
15240;SDS011;7723;52.170;9.978;2023-06-10T15:01:07;20.40;;;17.25;;
15240;SDS011;7723;52.170;9.978;2023-06-10T15:03:35;15.20;;;11.90;;
15240;SDS011;7723;52.170;9.978;2023-06-10T15:06:02;17.67;;;15.27;;